Terminal Aerodrome Forecast
Issued by NWS Albuquerque, NM

Home | Current Version | Previous Version | Text Only | Print | Product List | Glossary On
Versions: 1 2 3 4 5 6 7 8 9 10 11 12 13 14
000
FTUS45 KABQ 192300
TAFABQ
TAF
KABQ 192328Z 2000/2024 15005KT P6SM SCT070 SCT110
     FM200900 09010KT P6SM SCT015 SCT100
     FM201400 03005KT P6SM FEW015
     FM202000 09010G20KT P6SM SKC=

USA.gov is the U.S. government's official web portal to all federal, state and local government web resources and services.